sensor_id;sensor_type;location;lat;lon;timestamp;P1;durP1;ratioP1;P2;durP2;ratioP2
37049;SDS011;22958;51.232;6.826;2023-05-10T00:01:02;41.37;;;19.27;;
37049;SDS011;22958;51.232;6.826;2023-05-10T00:03:28;42.87;;;19.53;;
37049;SDS011;22958;51.232;6.826;2023-05-10T00:05:53;37.93;;;19.13;;
37049;SDS011;22958;51.232;6.826;2023-05-10T00:08:19;43.73;;;21.43;;
37049;SDS011;22958;51.232;6.826;2023-05-10T00:10:44;47.67;;;20.87;;
37049;SDS011;22958;51.232;6.826;2023-05-10T00:13:10;42.30;;;20.13;;
37049;SDS011;22958;51.232;6.826;2023-05-10T00:15:35;41.00;;;20.13;;
37049;SDS011;22958;51.232;6.826;2023-05-10T00:18:01;45.57;;;21.77;;
37049;SDS011;22958;51.232;6.826;2023-05-10T00:20:27;44.77;;;21.00;;
37049;SDS011;22958;51.232;6.826;2023-05-10T00:22:52;45.70;;;20.63;;
37049;SDS011;22958;51.232;6.826;2023-05-10T00:25:18;46.90;;;21.70;;
37049;SDS011;22958;51.232;6.826;2023-05-10T00:27:43;52.33;;;22.37;;
37049;SDS011;22958;51.232;6.826;2023-05-10T00:30:09;49.63;;;22.13;;
37049;SDS011;22958;51.232;6.826;2023-05-10T00:32:34;44.80;;;21.57;;
37049;SDS011;22958;51.232;6.826;2023-05-10T00:35:00;49.70;;;22.00;;
37049;SDS011;22958;51.232;6.826;2023-05-10T00:37:25;47.17;;;21.23;;
37049;SDS011;22958;51.232;6.826;2023-05-10T00:39:51;51.53;;;23.53;;
37049;SDS011;22958;51.232;6.826;2023-05-10T00:42:17;42.97;;;21.20;;
37049;SDS011;22958;51.232;6.826;2023-05-10T00:44:42;46.50;;;22.67;;
37049;SDS011;22958;51.232;6.826;2023-05-10T00:47:08;46.77;;;21.43;;
37049;SDS011;22958;51.232;6.826;2023-05-10T00:49:34;49.17;;;23.50;;
37049;SDS011;22958;51.232;6.826;2023-05-10T00:52:00;47.88;;;22.33;;
37049;SDS011;22958;51.232;6.826;2023-05-10T00:54:27;39.97;;;19.45;;
37049;SDS011;22958;51.232;6.826;2023-05-10T00:56:52;38.93;;;19.17;;
37049;SDS011;22958;51.232;6.826;2023-05-10T00:59:18;49.03;;;19.97;;
37049;SDS011;22958;51.232;6.826;2023-05-10T01:01:44;33.23;;;16.53;;
37049;SDS011;22958;51.232;6.826;2023-05-10T01:04:11;35.90;;;16.67;;
37049;SDS011;22958;51.232;6.826;2023-05-10T01:06:38;34.28;;;16.48;;
37049;SDS011;22958;51.232;6.826;2023-05-10T01:11:31;35.85;;;16.17;;
37049;SDS011;22958;51.232;6.826;2023-05-10T01:13:58;33.13;;;16.42;;
37049;SDS011;22958;51.232;6.826;2023-05-10T01:16:24;29.90;;;15.00;;
37049;SDS011;22958;51.232;6.826;2023-05-10T01:18:51;41.60;;;18.92;;
37049;SDS011;22958;51.232;6.826;2023-05-10T01:35:31;36.08;;;18.15;;
37049;SDS011;22958;51.232;6.826;2023-05-10T01:38:50;38.38;;;18.30;;
37049;SDS011;22958;51.232;6.826;2023-05-10T01:44:33;28.73;;;15.82;;
37049;SDS011;22958;51.232;6.826;2023-05-10T01:47:07;36.17;;;16.77;;
37049;SDS011;22958;51.232;6.826;2023-05-10T01:49:47;38.45;;;17.88;;
37049;SDS011;22958;51.232;6.826;2023-05-10T01:52:17;37.03;;;17.90;;
37049;SDS011;22958;51.232;6.826;2023-05-10T01:54:47;33.67;;;16.80;;
37049;SDS011;22958;51.232;6.826;2023-05-10T01:57:18;38.25;;;18.30;;
37049;SDS011;22958;51.232;6.826;2023-05-10T01:59:46;33.17;;;17.42;;
37049;SDS011;22958;51.232;6.826;2023-05-10T02:02:15;41.28;;;20.60;;
37049;SDS011;22958;51.232;6.826;2023-05-10T02:04:45;41.15;;;19.42;;
37049;SDS011;22958;51.232;6.826;2023-05-10T02:07:12;49.03;;;20.20;;
37049;SDS011;22958;51.232;6.826;2023-05-10T02:09:39;43.97;;;20.33;;
37049;SDS011;22958;51.232;6.826;2023-05-10T02:12:08;42.33;;;19.70;;
37049;SDS011;22958;51.232;6.826;2023-05-10T02:14:35;44.20;;;20.33;;
37049;SDS011;22958;51.232;6.826;2023-05-10T02:19:29;42.87;;;19.67;;
37049;SDS011;22958;51.232;6.826;2023-05-10T02:21:56;40.88;;;19.40;;
37049;SDS011;22958;51.232;6.826;2023-05-10T02:24:24;40.30;;;18.60;;
37049;SDS011;22958;51.232;6.826;2023-05-10T02:26:51;42.97;;;20.05;;
37049;SDS011;22958;51.232;6.826;2023-05-10T02:29:20;41.45;;;19.88;;
37049;SDS011;22958;51.232;6.826;2023-05-10T02:31:48;31.98;;;17.13;;
37049;SDS011;22958;51.232;6.826;2023-05-10T02:34:17;35.58;;;18.95;;
37049;SDS011;22958;51.232;6.826;2023-05-10T02:36:44;34.83;;;18.00;;
37049;SDS011;22958;51.232;6.826;2023-05-10T02:39:09;29.60;;;15.10;;
37049;SDS011;22958;51.232;6.826;2023-05-10T02:41:38;36.50;;;17.58;;
37049;SDS011;22958;51.232;6.826;2023-05-10T02:44:06;32.78;;;17.00;;
37049;SDS011;22958;51.232;6.826;2023-05-10T02:46:34;32.88;;;16.35;;
37049;SDS011;22958;51.232;6.826;2023-05-10T02:49:00;40.80;;;18.20;;
37049;SDS011;22958;51.232;6.826;2023-05-10T02:51:27;35.88;;;17.50;;
37049;SDS011;22958;51.232;6.826;2023-05-10T02:53:56;31.73;;;16.42;;
37049;SDS011;22958;51.232;6.826;2023-05-10T02:56:25;30.55;;;15.52;;
37049;SDS011;22958;51.232;6.826;2023-05-10T02:58:54;32.08;;;15.43;;
37049;SDS011;22958;51.232;6.826;2023-05-10T03:01:20;30.63;;;14.85;;
37049;SDS011;22958;51.232;6.826;2023-05-10T03:03:46;29.60;;;14.53;;
37049;SDS011;22958;51.232;6.826;2023-05-10T03:06:11;30.77;;;15.03;;
37049;SDS011;22958;51.232;6.826;2023-05-10T03:08:37;31.53;;;15.93;;
37049;SDS011;22958;51.232;6.826;2023-05-10T03:13:48;32.80;;;14.63;;
37049;SDS011;22958;51.232;6.826;2023-05-10T03:16:27;28.77;;;15.20;;
37049;SDS011;22958;51.232;6.826;2023-05-10T03:19:02;30.50;;;14.30;;
37049;SDS011;22958;51.232;6.826;2023-05-10T03:21:49;27.23;;;14.90;;
37049;SDS011;22958;51.232;6.826;2023-05-10T03:24:18;31.17;;;15.63;;
37049;SDS011;22958;51.232;6.826;2023-05-10T03:26:46;29.02;;;15.10;;
37049;SDS011;22958;51.232;6.826;2023-05-10T03:29:13;31.60;;;16.25;;
37049;SDS011;22958;51.232;6.826;2023-05-10T03:34:06;36.63;;;16.83;;
37049;SDS011;22958;51.232;6.826;2023-05-10T03:36:32;28.27;;;15.23;;
37049;SDS011;22958;51.232;6.826;2023-05-10T03:38:57;36.37;;;16.63;;
37049;SDS011;22958;51.232;6.826;2023-05-10T03:41:23;34.30;;;19.20;;
37049;SDS011;22958;51.232;6.826;2023-05-10T03:46:15;36.72;;;18.98;;
37049;SDS011;22958;51.232;6.826;2023-05-10T03:48:41;35.03;;;17.67;;
37049;SDS011;22958;51.232;6.826;2023-05-10T03:51:07;37.93;;;17.33;;
37049;SDS011;22958;51.232;6.826;2023-05-10T03:53:32;41.63;;;19.73;;
37049;SDS011;22958;51.232;6.826;2023-05-10T03:55:58;39.73;;;19.20;;
37049;SDS011;22958;51.232;6.826;2023-05-10T03:58:23;46.13;;;19.97;;
37049;SDS011;22958;51.232;6.826;2023-05-10T04:00:48;40.17;;;19.23;;
37049;SDS011;22958;51.232;6.826;2023-05-10T04:03:14;41.80;;;20.87;;
37049;SDS011;22958;51.232;6.826;2023-05-10T04:05:40;44.67;;;21.57;;
37049;SDS011;22958;51.232;6.826;2023-05-10T04:08:05;44.10;;;21.23;;
37049;SDS011;22958;51.232;6.826;2023-05-10T04:10:31;45.63;;;21.63;;
37049;SDS011;22958;51.232;6.826;2023-05-10T04:12:57;44.00;;;22.37;;
37049;SDS011;22958;51.232;6.826;2023-05-10T04:15:22;53.67;;;24.63;;
37049;SDS011;22958;51.232;6.826;2023-05-10T04:17:48;54.03;;;25.50;;
37049;SDS011;22958;51.232;6.826;2023-05-10T04:20:14;59.17;;;25.17;;
37049;SDS011;22958;51.232;6.826;2023-05-10T04:22:39;48.37;;;23.63;;
37049;SDS011;22958;51.232;6.826;2023-05-10T04:25:05;51.67;;;25.80;;
37049;SDS011;22958;51.232;6.826;2023-05-10T04:27:31;57.83;;;25.58;;
37049;SDS011;22958;51.232;6.826;2023-05-10T04:29:57;59.60;;;29.43;;
37049;SDS011;22958;51.232;6.826;2023-05-10T04:32:23;62.03;;;29.70;;
37049;SDS011;22958;51.232;6.826;2023-05-10T04:34:48;70.50;;;30.83;;
37049;SDS011;22958;51.232;6.826;2023-05-10T04:37:15;61.00;;;27.70;;
37049;SDS011;22958;51.232;6.826;2023-05-10T04:39:41;71.80;;;30.77;;
37049;SDS011;22958;51.232;6.826;2023-05-10T04:42:06;68.57;;;30.07;;
37049;SDS011;22958;51.232;6.826;2023-05-10T04:44:32;65.10;;;31.30;;
37049;SDS011;22958;51.232;6.826;2023-05-10T04:46:57;71.47;;;31.80;;
37049;SDS011;22958;51.232;6.826;2023-05-10T04:49:23;72.40;;;30.77;;
37049;SDS011;22958;51.232;6.826;2023-05-10T04:51:49;74.53;;;33.57;;
37049;SDS011;22958;51.232;6.826;2023-05-10T04:54:15;81.53;;;33.17;;
37049;SDS011;22958;51.232;6.826;2023-05-10T04:56:40;68.57;;;31.20;;
37049;SDS011;22958;51.232;6.826;2023-05-10T04:59:06;71.07;;;30.23;;
37049;SDS011;22958;51.232;6.826;2023-05-10T05:01:31;68.33;;;30.40;;
37049;SDS011;22958;51.232;6.826;2023-05-10T05:03:57;68.97;;;29.97;;
37049;SDS011;22958;51.232;6.826;2023-05-10T05:06:23;68.03;;;30.37;;
37049;SDS011;22958;51.232;6.826;2023-05-10T05:08:49;71.35;;;29.65;;
37049;SDS011;22958;51.232;6.826;2023-05-10T05:11:15;67.93;;;29.67;;
37049;SDS011;22958;51.232;6.826;2023-05-10T05:13:41;70.88;;;29.63;;
37049;SDS011;22958;51.232;6.826;2023-05-10T05:16:07;64.73;;;30.00;;
37049;SDS011;22958;51.232;6.826;2023-05-10T05:18:32;66.70;;;28.97;;
37049;SDS011;22958;51.232;6.826;2023-05-10T05:20:58;65.47;;;29.10;;
37049;SDS011;22958;51.232;6.826;2023-05-10T05:23:24;65.50;;;28.30;;
37049;SDS011;22958;51.232;6.826;2023-05-10T05:25:51;72.73;;;28.37;;
37049;SDS011;22958;51.232;6.826;2023-05-10T05:28:20;57.67;;;26.70;;
37049;SDS011;22958;51.232;6.826;2023-05-10T05:30:45;55.20;;;26.02;;
37049;SDS011;22958;51.232;6.826;2023-05-10T05:33:12;52.37;;;27.20;;
37049;SDS011;22958;51.232;6.826;2023-05-10T05:35:38;57.20;;;25.08;;
37049;SDS011;22958;51.232;6.826;2023-05-10T05:38:04;50.50;;;25.30;;
37049;SDS011;22958;51.232;6.826;2023-05-10T05:40:30;51.10;;;24.98;;
37049;SDS011;22958;51.232;6.826;2023-05-10T05:42:55;49.47;;;24.17;;
37049;SDS011;22958;51.232;6.826;2023-05-10T05:45:21;51.07;;;23.83;;
37049;SDS011;22958;51.232;6.826;2023-05-10T05:47:46;51.20;;;24.50;;
37049;SDS011;22958;51.232;6.826;2023-05-10T05:50:12;49.33;;;23.60;;
37049;SDS011;22958;51.232;6.826;2023-05-10T05:52:37;54.20;;;24.33;;
37049;SDS011;22958;51.232;6.826;2023-05-10T05:55:03;56.33;;;24.00;;
37049;SDS011;22958;51.232;6.826;2023-05-10T05:57:29;47.23;;;23.20;;
37049;SDS011;22958;51.232;6.826;2023-05-10T05:59:54;43.83;;;22.77;;
37049;SDS011;22958;51.232;6.826;2023-05-10T06:02:20;48.87;;;22.77;;
37049;SDS011;22958;51.232;6.826;2023-05-10T06:04:45;49.03;;;22.37;;
37049;SDS011;22958;51.232;6.826;2023-05-10T06:07:11;59.13;;;22.63;;
37049;SDS011;22958;51.232;6.826;2023-05-10T06:09:36;44.27;;;22.07;;
37049;SDS011;22958;51.232;6.826;2023-05-10T06:12:02;56.37;;;22.87;;
37049;SDS011;22958;51.232;6.826;2023-05-10T06:14:28;59.53;;;23.70;;
37049;SDS011;22958;51.232;6.826;2023-05-10T06:16:53;49.87;;;23.57;;
37049;SDS011;22958;51.232;6.826;2023-05-10T06:19:19;56.80;;;23.47;;
37049;SDS011;22958;51.232;6.826;2023-05-10T06:21:44;48.73;;;21.90;;
37049;SDS011;22958;51.232;6.826;2023-05-10T06:24:10;40.23;;;22.17;;
37049;SDS011;22958;51.232;6.826;2023-05-10T06:26:35;52.03;;;23.13;;
37049;SDS011;22958;51.232;6.826;2023-05-10T06:29:01;58.63;;;26.07;;
37049;SDS011;22958;51.232;6.826;2023-05-10T06:31:26;59.00;;;24.80;;
37049;SDS011;22958;51.232;6.826;2023-05-10T06:33:52;57.63;;;24.23;;
37049;SDS011;22958;51.232;6.826;2023-05-10T06:36:18;54.83;;;23.93;;
37049;SDS011;22958;51.232;6.826;2023-05-10T06:38:43;54.67;;;26.17;;
37049;SDS011;22958;51.232;6.826;2023-05-10T06:41:09;55.30;;;27.00;;
37049;SDS011;22958;51.232;6.826;2023-05-10T06:43:34;60.07;;;28.07;;
37049;SDS011;22958;51.232;6.826;2023-05-10T06:46:00;70.57;;;29.33;;
37049;SDS011;22958;51.232;6.826;2023-05-10T06:48:25;61.53;;;27.80;;
37049;SDS011;22958;51.232;6.826;2023-05-10T06:50:51;58.50;;;26.03;;
37049;SDS011;22958;51.232;6.826;2023-05-10T06:53:17;58.30;;;23.90;;
37049;SDS011;22958;51.232;6.826;2023-05-10T06:55:42;52.63;;;24.97;;
37049;SDS011;22958;51.232;6.826;2023-05-10T06:58:08;54.43;;;24.00;;
37049;SDS011;22958;51.232;6.826;2023-05-10T07:00:33;56.80;;;25.00;;
37049;SDS011;22958;51.232;6.826;2023-05-10T07:02:59;54.23;;;24.77;;
37049;SDS011;22958;51.232;6.826;2023-05-10T07:05:24;61.43;;;27.77;;
37049;SDS011;22958;51.232;6.826;2023-05-10T07:07:52;78.70;;;28.23;;
37049;SDS011;22958;51.232;6.826;2023-05-10T07:10:18;75.67;;;30.03;;
37049;SDS011;22958;51.232;6.826;2023-05-10T07:12:43;76.73;;;29.90;;
37049;SDS011;22958;51.232;6.826;2023-05-10T07:15:09;81.80;;;30.83;;
37049;SDS011;22958;51.232;6.826;2023-05-10T07:17:35;71.10;;;27.77;;
37049;SDS011;22958;51.232;6.826;2023-05-10T07:20:00;76.87;;;29.70;;
37049;SDS011;22958;51.232;6.826;2023-05-10T07:22:26;74.13;;;27.98;;
37049;SDS011;22958;51.232;6.826;2023-05-10T07:24:52;61.53;;;27.30;;
37049;SDS011;22958;51.232;6.826;2023-05-10T07:27:17;71.60;;;27.70;;
37049;SDS011;22958;51.232;6.826;2023-05-10T07:29:43;75.27;;;27.60;;
37049;SDS011;22958;51.232;6.826;2023-05-10T07:32:08;68.70;;;27.57;;
37049;SDS011;22958;51.232;6.826;2023-05-10T07:34:34;59.47;;;25.60;;
37049;SDS011;22958;51.232;6.826;2023-05-10T07:36:59;60.67;;;24.03;;
37049;SDS011;22958;51.232;6.826;2023-05-10T07:39:26;66.30;;;25.02;;
37049;SDS011;22958;51.232;6.826;2023-05-10T07:41:52;52.78;;;21.67;;
37049;SDS011;22958;51.232;6.826;2023-05-10T07:44:17;47.47;;;21.47;;
37049;SDS011;22958;51.232;6.826;2023-05-10T07:46:44;48.28;;;20.67;;
37049;SDS011;22958;51.232;6.826;2023-05-10T07:49:09;40.07;;;18.70;;
37049;SDS011;22958;51.232;6.826;2023-05-10T07:51:35;36.37;;;17.90;;
37049;SDS011;22958;51.232;6.826;2023-05-10T07:54:00;39.97;;;18.33;;
37049;SDS011;22958;51.232;6.826;2023-05-10T07:56:28;37.13;;;18.30;;
37049;SDS011;22958;51.232;6.826;2023-05-10T07:58:58;41.03;;;18.77;;
37049;SDS011;22958;51.232;6.826;2023-05-10T08:01:24;51.45;;;19.73;;
37049;SDS011;22958;51.232;6.826;2023-05-10T08:03:50;57.67;;;24.92;;
37049;SDS011;22958;51.232;6.826;2023-05-10T08:06:18;74.88;;;30.73;;
37049;SDS011;22958;51.232;6.826;2023-05-10T08:08:45;87.30;;;33.83;;
37049;SDS011;22958;51.232;6.826;2023-05-10T08:11:14;89.45;;;34.13;;
37049;SDS011;22958;51.232;6.826;2023-05-10T08:13:42;82.00;;;32.80;;
37049;SDS011;22958;51.232;6.826;2023-05-10T08:16:08;95.38;;;34.75;;
37049;SDS011;22958;51.232;6.826;2023-05-10T08:18:34;94.97;;;35.37;;
37049;SDS011;22958;51.232;6.826;2023-05-10T08:21:00;95.30;;;36.47;;
37049;SDS011;22958;51.232;6.826;2023-05-10T08:23:25;90.73;;;35.40;;
37049;SDS011;22958;51.232;6.826;2023-05-10T08:25:51;83.20;;;33.40;;
37049;SDS011;22958;51.232;6.826;2023-05-10T08:28:16;76.10;;;32.87;;
37049;SDS011;22958;51.232;6.826;2023-05-10T08:30:42;84.90;;;34.63;;
37049;SDS011;22958;51.232;6.826;2023-05-10T08:33:07;80.93;;;35.20;;
37049;SDS011;22958;51.232;6.826;2023-05-10T08:35:33;82.60;;;36.03;;
37049;SDS011;22958;51.232;6.826;2023-05-10T08:37:59;90.70;;;36.28;;
37049;SDS011;22958;51.232;6.826;2023-05-10T08:40:25;81.57;;;36.97;;
37049;SDS011;22958;51.232;6.826;2023-05-10T08:42:55;79.18;;;36.42;;
37049;SDS011;22958;51.232;6.826;2023-05-10T08:45:25;79.93;;;36.03;;
37049;SDS011;22958;51.232;6.826;2023-05-10T08:47:56;71.60;;;32.67;;
37049;SDS011;22958;51.232;6.826;2023-05-10T08:50:23;70.15;;;30.48;;
37049;SDS011;22958;51.232;6.826;2023-05-10T08:52:50;67.18;;;30.05;;
37049;SDS011;22958;51.232;6.826;2023-05-10T08:55:17;68.18;;;31.50;;
37049;SDS011;22958;51.232;6.826;2023-05-10T08:57:43;72.23;;;31.13;;
37049;SDS011;22958;51.232;6.826;2023-05-10T09:00:09;76.90;;;33.10;;
37049;SDS011;22958;51.232;6.826;2023-05-10T09:02:36;80.15;;;33.97;;
37049;SDS011;22958;51.232;6.826;2023-05-10T09:05:02;78.60;;;34.08;;
37049;SDS011;22958;51.232;6.826;2023-05-10T09:07:29;74.38;;;33.75;;
37049;SDS011;22958;51.232;6.826;2023-05-10T09:09:55;82.37;;;34.90;;
37049;SDS011;22958;51.232;6.826;2023-05-10T09:12:21;71.22;;;31.15;;
37049;SDS011;22958;51.232;6.826;2023-05-10T09:14:47;70.37;;;31.17;;
37049;SDS011;22958;51.232;6.826;2023-05-10T09:17:15;69.43;;;28.88;;
37049;SDS011;22958;51.232;6.826;2023-05-10T09:19:41;59.30;;;27.47;;
37049;SDS011;22958;51.232;6.826;2023-05-10T09:22:06;60.60;;;24.93;;
37049;SDS011;22958;51.232;6.826;2023-05-10T09:24:32;53.53;;;24.77;;
37049;SDS011;22958;51.232;6.826;2023-05-10T09:26:57;59.83;;;24.37;;
37049;SDS011;22958;51.232;6.826;2023-05-10T09:29:26;52.50;;;24.63;;
37049;SDS011;22958;51.232;6.826;2023-05-10T09:31:51;48.03;;;22.70;;
37049;SDS011;22958;51.232;6.826;2023-05-10T09:34:20;52.33;;;21.50;;
37049;SDS011;22958;51.232;6.826;2023-05-10T09:37:00;46.33;;;21.17;;
37049;SDS011;22958;51.232;6.826;2023-05-10T09:39:34;37.67;;;20.52;;
37049;SDS011;22958;51.232;6.826;2023-05-10T09:42:04;41.10;;;20.92;;
37049;SDS011;22958;51.232;6.826;2023-05-10T09:44:34;39.13;;;19.90;;
37049;SDS011;22958;51.232;6.826;2023-05-10T09:49:27;37.35;;;19.73;;
37049;SDS011;22958;51.232;6.826;2023-05-10T09:52:03;46.80;;;20.27;;
37049;SDS011;22958;51.232;6.826;2023-05-10T09:54:30;40.00;;;19.50;;
37049;SDS011;22958;51.232;6.826;2023-05-10T09:56:56;34.33;;;18.73;;
37049;SDS011;22958;51.232;6.826;2023-05-10T09:59:22;31.67;;;17.13;;
37049;SDS011;22958;51.232;6.826;2023-05-10T10:01:52;33.47;;;16.38;;
37049;SDS011;22958;51.232;6.826;2023-05-10T10:04:20;31.58;;;17.15;;
37049;SDS011;22958;51.232;6.826;2023-05-10T10:06:46;37.13;;;16.93;;
37049;SDS011;22958;51.232;6.826;2023-05-10T10:09:22;37.05;;;19.02;;
37049;SDS011;22958;51.232;6.826;2023-05-10T10:11:49;31.65;;;16.77;;
37049;SDS011;22958;51.232;6.826;2023-05-10T10:14:15;28.87;;;16.50;;
37049;SDS011;22958;51.232;6.826;2023-05-10T10:16:43;41.53;;;17.63;;
37049;SDS011;22958;51.232;6.826;2023-05-10T10:19:09;36.57;;;18.27;;
37049;SDS011;22958;51.232;6.826;2023-05-10T10:21:35;31.87;;;16.80;;
37049;SDS011;22958;51.232;6.826;2023-05-10T10:24:00;36.73;;;17.33;;
37049;SDS011;22958;51.232;6.826;2023-05-10T10:26:26;36.50;;;17.27;;
37049;SDS011;22958;51.232;6.826;2023-05-10T10:31:53;37.50;;;18.20;;
37049;SDS011;22958;51.232;6.826;2023-05-10T10:34:31;33.72;;;17.85;;
37049;SDS011;22958;51.232;6.826;2023-05-10T10:36:57;40.70;;;18.03;;
37049;SDS011;22958;51.232;6.826;2023-05-10T10:39:28;37.47;;;19.52;;
37049;SDS011;22958;51.232;6.826;2023-05-10T10:41:54;35.07;;;18.03;;
37049;SDS011;22958;51.232;6.826;2023-05-10T10:55:14;36.50;;;17.85;;
37049;SDS011;22958;51.232;6.826;2023-05-10T10:58:12;31.98;;;15.55;;
37049;SDS011;22958;51.232;6.826;2023-05-10T11:00:32;33.63;;;14.52;;
37049;SDS011;22958;51.232;6.826;2023-05-10T11:03:11;27.83;;;15.35;;
37049;SDS011;22958;51.232;6.826;2023-05-10T11:05:43;31.52;;;16.17;;
37049;SDS011;22958;51.232;6.826;2023-05-10T11:10:52;30.95;;;16.48;;
37049;SDS011;22958;51.232;6.826;2023-05-10T11:13:30;32.33;;;16.73;;
37049;SDS011;22958;51.232;6.826;2023-05-10T11:15:56;30.80;;;16.95;;
37049;SDS011;22958;51.232;6.826;2023-05-10T11:18:31;37.35;;;18.15;;
37049;SDS011;22958;51.232;6.826;2023-05-10T11:21:00;43.20;;;20.48;;
37049;SDS011;22958;51.232;6.826;2023-05-10T11:26:08;42.70;;;21.67;;
37049;SDS011;22958;51.232;6.826;2023-05-10T11:28:34;41.78;;;21.20;;
37049;SDS011;22958;51.232;6.826;2023-05-10T11:31:06;44.53;;;22.70;;
37049;SDS011;22958;51.232;6.826;2023-05-10T11:33:31;39.60;;;22.87;;
37049;SDS011;22958;51.232;6.826;2023-05-10T11:36:15;44.63;;;23.17;;
37049;SDS011;22958;51.232;6.826;2023-05-10T11:38:43;45.97;;;23.40;;
37049;SDS011;22958;51.232;6.826;2023-05-10T11:41:09;45.33;;;23.15;;
37049;SDS011;22958;51.232;6.826;2023-05-10T11:43:36;40.33;;;22.70;;
37049;SDS011;22958;51.232;6.826;2023-05-10T11:46:04;39.70;;;22.10;;
37049;SDS011;22958;51.232;6.826;2023-05-10T11:48:31;38.78;;;22.10;;
37049;SDS011;22958;51.232;6.826;2023-05-10T11:50:56;40.58;;;22.48;;
37049;SDS011;22958;51.232;6.826;2023-05-10T11:53:22;41.47;;;22.10;;
37049;SDS011;22958;51.232;6.826;2023-05-10T11:55:50;39.97;;;21.10;;
37049;SDS011;22958;51.232;6.826;2023-05-10T11:58:17;37.40;;;21.17;;
37049;SDS011;22958;51.232;6.826;2023-05-10T12:00:43;33.92;;;19.55;;
37049;SDS011;22958;51.232;6.826;2023-05-10T12:05:36;27.13;;;16.98;;
37049;SDS011;22958;51.232;6.826;2023-05-10T12:08:14;32.03;;;16.97;;
37049;SDS011;22958;51.232;6.826;2023-05-10T12:10:41;31.48;;;17.52;;
37049;SDS011;22958;51.232;6.826;2023-05-10T12:13:13;32.83;;;18.00;;
37049;SDS011;22958;51.232;6.826;2023-05-10T12:15:39;39.40;;;19.15;;
37049;SDS011;22958;51.232;6.826;2023-05-10T12:18:05;29.07;;;17.93;;
37049;SDS011;22958;51.232;6.826;2023-05-10T12:20:30;32.73;;;20.03;;
37049;SDS011;22958;51.232;6.826;2023-05-10T12:22:57;34.37;;;19.20;;
37049;SDS011;22958;51.232;6.826;2023-05-10T12:25:24;36.67;;;19.70;;
37049;SDS011;22958;51.232;6.826;2023-05-10T12:27:56;34.90;;;19.38;;
37049;SDS011;22958;51.232;6.826;2023-05-10T12:30:23;35.60;;;19.55;;
37049;SDS011;22958;51.232;6.826;2023-05-10T12:32:50;34.50;;;18.17;;
37049;SDS011;22958;51.232;6.826;2023-05-10T12:35:16;34.35;;;18.98;;
37049;SDS011;22958;51.232;6.826;2023-05-10T12:37:44;32.40;;;18.98;;
37049;SDS011;22958;51.232;6.826;2023-05-10T12:40:10;38.77;;;18.93;;
37049;SDS011;22958;51.232;6.826;2023-05-10T12:42:36;37.75;;;19.50;;
37049;SDS011;22958;51.232;6.826;2023-05-10T12:45:03;35.30;;;19.45;;
37049;SDS011;22958;51.232;6.826;2023-05-10T12:47:30;33.22;;;18.55;;
37049;SDS011;22958;51.232;6.826;2023-05-10T12:49:56;32.10;;;18.70;;
37049;SDS011;22958;51.232;6.826;2023-05-10T12:52:21;31.37;;;17.80;;
37049;SDS011;22958;51.232;6.826;2023-05-10T12:54:47;35.13;;;18.93;;
37049;SDS011;22958;51.232;6.826;2023-05-10T12:57:14;33.20;;;19.50;;
37049;SDS011;22958;51.232;6.826;2023-05-10T12:59:39;40.90;;;22.23;;
37049;SDS011;22958;51.232;6.826;2023-05-10T13:02:05;35.53;;;21.00;;
37049;SDS011;22958;51.232;6.826;2023-05-10T13:04:31;33.45;;;20.25;;
37049;SDS011;22958;51.232;6.826;2023-05-10T13:06:57;36.97;;;20.37;;
37049;SDS011;22958;51.232;6.826;2023-05-10T13:09:24;33.13;;;19.98;;
37049;SDS011;22958;51.232;6.826;2023-05-10T13:11:50;38.10;;;18.73;;
37049;SDS011;22958;51.232;6.826;2023-05-10T13:14:16;33.72;;;20.45;;
37049;SDS011;22958;51.232;6.826;2023-05-10T13:16:41;31.80;;;19.53;;
37049;SDS011;22958;51.232;6.826;2023-05-10T13:19:07;34.77;;;19.37;;
37049;SDS011;22958;51.232;6.826;2023-05-10T13:21:32;32.30;;;19.10;;
37049;SDS011;22958;51.232;6.826;2023-05-10T13:26:26;38.67;;;21.40;;
37049;SDS011;22958;51.232;6.826;2023-05-10T13:28:51;34.43;;;20.00;;
37049;SDS011;22958;51.232;6.826;2023-05-10T13:31:20;32.05;;;19.08;;
37049;SDS011;22958;51.232;6.826;2023-05-10T13:33:46;33.63;;;20.10;;
37049;SDS011;22958;51.232;6.826;2023-05-10T13:36:11;31.70;;;17.80;;
37049;SDS011;22958;51.232;6.826;2023-05-10T13:38:37;30.53;;;18.73;;
37049;SDS011;22958;51.232;6.826;2023-05-10T13:41:02;31.17;;;18.00;;
37049;SDS011;22958;51.232;6.826;2023-05-10T13:43:28;32.30;;;18.00;;
37049;SDS011;22958;51.232;6.826;2023-05-10T13:45:54;32.15;;;17.67;;
37049;SDS011;22958;51.232;6.826;2023-05-10T13:48:20;29.17;;;15.97;;
37049;SDS011;22958;51.232;6.826;2023-05-10T13:50:46;36.53;;;18.30;;
37049;SDS011;22958;51.232;6.826;2023-05-10T13:53:11;30.00;;;18.13;;
37049;SDS011;22958;51.232;6.826;2023-05-10T13:55:37;32.97;;;17.53;;
37049;SDS011;22958;51.232;6.826;2023-05-10T13:58:03;28.13;;;17.03;;
37049;SDS011;22958;51.232;6.826;2023-05-10T14:00:28;30.07;;;17.17;;
37049;SDS011;22958;51.232;6.826;2023-05-10T14:02:54;30.97;;;18.53;;
37049;SDS011;22958;51.232;6.826;2023-05-10T14:05:20;30.40;;;17.20;;
37049;SDS011;22958;51.232;6.826;2023-05-10T14:07:45;28.37;;;16.47;;
37049;SDS011;22958;51.232;6.826;2023-05-10T14:10:11;33.13;;;19.00;;
37049;SDS011;22958;51.232;6.826;2023-05-10T14:12:37;29.03;;;17.47;;
37049;SDS011;22958;51.232;6.826;2023-05-10T14:15:02;27.27;;;16.13;;
37049;SDS011;22958;51.232;6.826;2023-05-10T14:17:30;31.15;;;18.30;;
37049;SDS011;22958;51.232;6.826;2023-05-10T14:19:56;28.45;;;17.38;;
37049;SDS011;22958;51.232;6.826;2023-05-10T14:22:22;27.83;;;16.40;;
37049;SDS011;22958;51.232;6.826;2023-05-10T14:24:48;29.53;;;16.70;;
37049;SDS011;22958;51.232;6.826;2023-05-10T14:27:13;32.37;;;17.20;;
37049;SDS011;22958;51.232;6.826;2023-05-10T14:29:39;27.48;;;16.65;;
37049;SDS011;22958;51.232;6.826;2023-05-10T14:32:05;29.73;;;17.67;;
37049;SDS011;22958;51.232;6.826;2023-05-10T14:34:31;30.40;;;16.35;;
37049;SDS011;22958;51.232;6.826;2023-05-10T14:36:56;30.27;;;15.90;;
37049;SDS011;22958;51.232;6.826;2023-05-10T14:39:22;31.63;;;17.67;;
37049;SDS011;22958;51.232;6.826;2023-05-10T14:41:48;27.13;;;15.63;;
37049;SDS011;22958;51.232;6.826;2023-05-10T14:44:13;25.53;;;14.37;;
37049;SDS011;22958;51.232;6.826;2023-05-10T14:46:40;23.45;;;14.68;;
37049;SDS011;22958;51.232;6.826;2023-05-10T14:49:06;19.35;;;10.77;;
37049;SDS011;22958;51.232;6.826;2023-05-10T14:51:32;17.37;;;10.63;;
37049;SDS011;22958;51.232;6.826;2023-05-10T14:53:58;18.53;;;11.07;;
37049;SDS011;22958;51.232;6.826;2023-05-10T14:56:23;18.27;;;10.63;;
37049;SDS011;22958;51.232;6.826;2023-05-10T14:58:50;25.60;;;11.00;;
37049;SDS011;22958;51.232;6.826;2023-05-10T15:01:16;20.17;;;10.53;;
37049;SDS011;22958;51.232;6.826;2023-05-10T15:03:41;21.27;;;11.00;;
37049;SDS011;22958;51.232;6.826;2023-05-10T15:06:07;17.10;;;10.67;;
37049;SDS011;22958;51.232;6.826;2023-05-10T15:08:33;19.27;;;9.60;;
37049;SDS011;22958;51.232;6.826;2023-05-10T15:10:59;14.97;;;8.37;;
37049;SDS011;22958;51.232;6.826;2023-05-10T15:13:24;16.00;;;8.73;;
37049;SDS011;22958;51.232;6.826;2023-05-10T15:15:50;17.33;;;10.53;;